sensor_id;sensor_type;location;lat;lon;timestamp;temperature;humidity
55004;DHT22;40900;52.710;6.438;2022-08-19T00:00:25;18.70;99.90
55004;DHT22;40900;52.710;6.438;2022-08-19T00:02:50;18.70;99.90
55004;DHT22;40900;52.710;6.438;2022-08-19T00:05:17;18.70;99.90
55004;DHT22;40900;52.710;6.438;2022-08-19T00:07:43;18.70;99.90
55004;DHT22;40900;52.710;6.438;2022-08-19T00:10:11;18.70;99.90
55004;DHT22;40900;52.710;6.438;2022-08-19T00:12:37;18.60;99.90
55004;DHT22;40900;52.710;6.438;2022-08-19T00:15:10;18.60;99.90
55004;DHT22;40900;52.710;6.438;2022-08-19T00:17:41;18.60;99.90
55004;DHT22;40900;52.710;6.438;2022-08-19T00:20:09;18.60;99.90
55004;DHT22;40900;52.710;6.438;2022-08-19T00:22:36;18.60;99.90
55004;DHT22;40900;52.710;6.438;2022-08-19T00:25:02;18.60;99.90
55004;DHT22;40900;52.710;6.438;2022-08-19T00:27:28;18.60;99.90
55004;DHT22;40900;52.710;6.438;2022-08-19T00:29:54;18.60;99.90
55004;DHT22;40900;52.710;6.438;2022-08-19T00:32:20;18.60;99.90
55004;DHT22;40900;52.710;6.438;2022-08-19T00:34:46;18.50;99.90
55004;DHT22;40900;52.710;6.438;2022-08-19T00:37:11;18.60;99.90
55004;DHT22;40900;52.710;6.438;2022-08-19T00:39:38;18.50;99.90
55004;DHT22;40900;52.710;6.438;2022-08-19T00:42:04;18.60;99.90
55004;DHT22;40900;52.710;6.438;2022-08-19T00:44:31;18.50;99.90
55004;DHT22;40900;52.710;6.438;2022-08-19T00:46:58;18.50;99.90
55004;DHT22;40900;52.710;6.438;2022-08-19T00:49:31;18.50;99.90
55004;DHT22;40900;52.710;6.438;2022-08-19T00:52:09;18.50;99.90
55004;DHT22;40900;52.710;6.438;2022-08-19T00:54:38;18.40;99.90
55004;DHT22;40900;52.710;6.438;2022-08-19T00:57:08;18.40;99.90
55004;DHT22;40900;52.710;6.438;2022-08-19T00:59:35;18.30;99.90
55004;DHT22;40900;52.710;6.438;2022-08-19T01:02:02;18.30;99.90
55004;DHT22;40900;52.710;6.438;2022-08-19T01:04:28;18.30;99.90
55004;DHT22;40900;52.710;6.438;2022-08-19T01:06:55;18.20;99.90
55004;DHT22;40900;52.710;6.438;2022-08-19T01:09:21;18.30;99.90
55004;DHT22;40900;52.710;6.438;2022-08-19T01:11:47;18.30;99.90
55004;DHT22;40900;52.710;6.438;2022-08-19T01:14:13;18.30;99.90
55004;DHT22;40900;52.710;6.438;2022-08-19T01:16:41;18.20;99.90
55004;DHT22;40900;52.710;6.438;2022-08-19T01:19:17;18.20;99.90
55004;DHT22;40900;52.710;6.438;2022-08-19T01:21:49;18.20;99.90
55004;DHT22;40900;52.710;6.438;2022-08-19T01:24:17;18.10;99.90
55004;DHT22;40900;52.710;6.438;2022-08-19T01:26:45;18.00;99.90
55004;DHT22;40900;52.710;6.438;2022-08-19T01:29:12;18.00;99.90
55004;DHT22;40900;52.710;6.438;2022-08-19T01:31:38;17.90;99.90
55004;DHT22;40900;52.710;6.438;2022-08-19T01:34:04;17.90;99.90
55004;DHT22;40900;52.710;6.438;2022-08-19T01:36:38;17.90;99.90
55004;DHT22;40900;52.710;6.438;2022-08-19T01:39:07;17.90;99.90
55004;DHT22;40900;52.710;6.438;2022-08-19T01:41:34;17.90;99.90
55004;DHT22;40900;52.710;6.438;2022-08-19T01:44:00;17.80;99.90
55004;DHT22;40900;52.710;6.438;2022-08-19T01:46:29;17.80;99.90
55004;DHT22;40900;52.710;6.438;2022-08-19T01:48:55;17.80;99.90
55004;DHT22;40900;52.710;6.438;2022-08-19T01:51:21;17.70;99.90
55004;DHT22;40900;52.710;6.438;2022-08-19T01:53:50;17.70;99.90
55004;DHT22;40900;52.710;6.438;2022-08-19T01:56:17;17.70;99.90
55004;DHT22;40900;52.710;6.438;2022-08-19T01:59:10;17.60;99.90
55004;DHT22;40900;52.710;6.438;2022-08-19T02:01:33;17.60;99.90
55004;DHT22;40900;52.710;6.438;2022-08-19T02:04:00;17.60;99.90
55004;DHT22;40900;52.710;6.438;2022-08-19T02:06:26;17.60;99.90
55004;DHT22;40900;52.710;6.438;2022-08-19T02:08:52;17.60;99.90
55004;DHT22;40900;52.710;6.438;2022-08-19T02:11:20;17.60;99.90
55004;DHT22;40900;52.710;6.438;2022-08-19T02:13:46;17.50;99.90
55004;DHT22;40900;52.710;6.438;2022-08-19T02:16:12;17.50;99.90
55004;DHT22;40900;52.710;6.438;2022-08-19T02:18:38;17.40;99.90
55004;DHT22;40900;52.710;6.438;2022-08-19T02:21:03;17.50;99.90
55004;DHT22;40900;52.710;6.438;2022-08-19T02:23:29;17.40;99.90
55004;DHT22;40900;52.710;6.438;2022-08-19T02:25:56;17.40;99.90
55004;DHT22;40900;52.710;6.438;2022-08-19T02:28:22;17.30;99.90
55004;DHT22;40900;52.710;6.438;2022-08-19T02:30:48;17.40;99.90
55004;DHT22;40900;52.710;6.438;2022-08-19T02:33:14;17.30;99.90
55004;DHT22;40900;52.710;6.438;2022-08-19T02:35:46;17.30;99.90
55004;DHT22;40900;52.710;6.438;2022-08-19T02:38:12;17.30;99.90
55004;DHT22;40900;52.710;6.438;2022-08-19T02:40:56;17.20;99.90
55004;DHT22;40900;52.710;6.438;2022-08-19T02:43:24;17.20;99.90
55004;DHT22;40900;52.710;6.438;2022-08-19T02:45:52;17.20;99.90
55004;DHT22;40900;52.710;6.438;2022-08-19T02:48:22;17.20;99.90
55004;DHT22;40900;52.710;6.438;2022-08-19T02:50:51;17.30;99.90
55004;DHT22;40900;52.710;6.438;2022-08-19T02:53:27;17.30;99.90
55004;DHT22;40900;52.710;6.438;2022-08-19T02:55:53;17.20;99.90
55004;DHT22;40900;52.710;6.438;2022-08-19T02:58:20;17.20;99.90
55004;DHT22;40900;52.710;6.438;2022-08-19T03:00:52;17.20;99.90
55004;DHT22;40900;52.710;6.438;2022-08-19T03:03:19;17.20;99.90
55004;DHT22;40900;52.710;6.438;2022-08-19T03:05:45;17.20;99.90
55004;DHT22;40900;52.710;6.438;2022-08-19T03:08:14;17.20;99.90
55004;DHT22;40900;52.710;6.438;2022-08-19T03:10:45;17.10;99.90
55004;DHT22;40900;52.710;6.438;2022-08-19T03:13:14;17.10;99.90
55004;DHT22;40900;52.710;6.438;2022-08-19T03:15:46;17.10;99.90
55004;DHT22;40900;52.710;6.438;2022-08-19T03:18:12;17.00;99.90
55004;DHT22;40900;52.710;6.438;2022-08-19T03:20:46;17.00;99.90
55004;DHT22;40900;52.710;6.438;2022-08-19T03:23:13;17.00;99.90
55004;DHT22;40900;52.710;6.438;2022-08-19T03:25:46;17.00;99.90
55004;DHT22;40900;52.710;6.438;2022-08-19T03:28:14;17.00;99.90
55004;DHT22;40900;52.710;6.438;2022-08-19T03:30:41;17.00;99.90
55004;DHT22;40900;52.710;6.438;2022-08-19T03:33:08;16.90;99.90
55004;DHT22;40900;52.710;6.438;2022-08-19T03:35:35;16.90;99.90
55004;DHT22;40900;52.710;6.438;2022-08-19T03:38:04;16.80;99.90
55004;DHT22;40900;52.710;6.438;2022-08-19T03:40:32;16.80;99.90
55004;DHT22;40900;52.710;6.438;2022-08-19T03:43:00;16.70;99.90
55004;DHT22;40900;52.710;6.438;2022-08-19T03:45:26;16.80;99.90
55004;DHT22;40900;52.710;6.438;2022-08-19T03:47:53;16.70;99.90
55004;DHT22;40900;52.710;6.438;2022-08-19T03:50:18;16.70;99.90
55004;DHT22;40900;52.710;6.438;2022-08-19T03:52:49;16.70;99.90
55004;DHT22;40900;52.710;6.438;2022-08-19T03:55:16;16.70;99.90
55004;DHT22;40900;52.710;6.438;2022-08-19T03:57:42;16.60;99.90
55004;DHT22;40900;52.710;6.438;2022-08-19T04:00:08;16.60;99.90
55004;DHT22;40900;52.710;6.438;2022-08-19T04:02:34;16.60;99.90
55004;DHT22;40900;52.710;6.438;2022-08-19T04:05:00;16.60;99.90
55004;DHT22;40900;52.710;6.438;2022-08-19T04:07:26;16.60;99.90
55004;DHT22;40900;52.710;6.438;2022-08-19T04:09:51;16.60;99.90
55004;DHT22;40900;52.710;6.438;2022-08-19T04:12:18;16.60;99.90
55004;DHT22;40900;52.710;6.438;2022-08-19T04:14:46;16.60;99.90
55004;DHT22;40900;52.710;6.438;2022-08-19T04:17:11;16.60;99.90
55004;DHT22;40900;52.710;6.438;2022-08-19T04:19:40;16.60;99.90
55004;DHT22;40900;52.710;6.438;2022-08-19T04:22:06;16.60;99.90
55004;DHT22;40900;52.710;6.438;2022-08-19T04:24:34;16.60;99.90
55004;DHT22;40900;52.710;6.438;2022-08-19T04:27:03;16.60;99.90
55004;DHT22;40900;52.710;6.438;2022-08-19T04:29:29;16.50;99.90
55004;DHT22;40900;52.710;6.438;2022-08-19T04:31:56;16.50;99.90
55004;DHT22;40900;52.710;6.438;2022-08-19T04:34:24;16.50;99.90
55004;DHT22;40900;52.710;6.438;2022-08-19T04:36:52;16.40;99.90
55004;DHT22;40900;52.710;6.438;2022-08-19T04:39:21;16.40;99.90
55004;DHT22;40900;52.710;6.438;2022-08-19T04:41:47;16.40;99.90
55004;DHT22;40900;52.710;6.438;2022-08-19T04:44:33;16.40;99.90
55004;DHT22;40900;52.710;6.438;2022-08-19T04:47:00;16.40;99.90
55004;DHT22;40900;52.710;6.438;2022-08-19T04:49:26;16.50;99.90
55004;DHT22;40900;52.710;6.438;2022-08-19T04:51:53;16.40;99.90
55004;DHT22;40900;52.710;6.438;2022-08-19T04:54:20;16.50;99.90
55004;DHT22;40900;52.710;6.438;2022-08-19T04:56:49;16.40;99.90
55004;DHT22;40900;52.710;6.438;2022-08-19T04:59:16;16.40;99.90
55004;DHT22;40900;52.710;6.438;2022-08-19T05:01:44;16.40;99.90
55004;DHT22;40900;52.710;6.438;2022-08-19T05:04:15;16.30;99.90
55004;DHT22;40900;52.710;6.438;2022-08-19T05:06:42;16.40;99.90
55004;DHT22;40900;52.710;6.438;2022-08-19T05:09:08;16.40;99.90
55004;DHT22;40900;52.710;6.438;2022-08-19T05:11:36;16.40;99.90
55004;DHT22;40900;52.710;6.438;2022-08-19T05:14:07;16.50;99.90
55004;DHT22;40900;52.710;6.438;2022-08-19T05:16:33;16.50;99.90
55004;DHT22;40900;52.710;6.438;2022-08-19T05:18:58;16.60;99.90
55004;DHT22;40900;52.710;6.438;2022-08-19T05:21:43;16.60;99.90
55004;DHT22;40900;52.710;6.438;2022-08-19T05:24:28;16.70;99.90
55004;DHT22;40900;52.710;6.438;2022-08-19T05:26:56;16.70;99.90
55004;DHT22;40900;52.710;6.438;2022-08-19T05:29:24;16.70;99.90
55004;DHT22;40900;52.710;6.438;2022-08-19T05:31:51;16.70;99.90
55004;DHT22;40900;52.710;6.438;2022-08-19T05:34:19;16.70;99.90
55004;DHT22;40900;52.710;6.438;2022-08-19T05:36:50;16.80;99.90
55004;DHT22;40900;52.710;6.438;2022-08-19T05:39:19;16.80;99.90
55004;DHT22;40900;52.710;6.438;2022-08-19T05:41:46;16.80;99.90
55004;DHT22;40900;52.710;6.438;2022-08-19T05:44:13;16.80;99.90
55004;DHT22;40900;52.710;6.438;2022-08-19T05:46:39;16.80;99.90
55004;DHT22;40900;52.710;6.438;2022-08-19T05:49:07;16.80;99.90
55004;DHT22;40900;52.710;6.438;2022-08-19T05:51:34;16.80;99.90
55004;DHT22;40900;52.710;6.438;2022-08-19T05:54:01;16.90;99.90
55004;DHT22;40900;52.710;6.438;2022-08-19T05:56:28;16.90;99.90
55004;DHT22;40900;52.710;6.438;2022-08-19T05:58:55;16.90;99.90
55004;DHT22;40900;52.710;6.438;2022-08-19T06:01:21;17.00;99.90
55004;DHT22;40900;52.710;6.438;2022-08-19T06:03:47;17.00;99.90
55004;DHT22;40900;52.710;6.438;2022-08-19T06:06:15;17.00;99.90
55004;DHT22;40900;52.710;6.438;2022-08-19T06:08:41;17.10;99.90
55004;DHT22;40900;52.710;6.438;2022-08-19T06:11:17;17.10;99.90
55004;DHT22;40900;52.710;6.438;2022-08-19T06:13:44;17.20;99.90
55004;DHT22;40900;52.710;6.438;2022-08-19T06:16:13;17.30;99.90
55004;DHT22;40900;52.710;6.438;2022-08-19T06:18:40;17.30;99.90
55004;DHT22;40900;52.710;6.438;2022-08-19T06:21:05;17.30;99.90
55004;DHT22;40900;52.710;6.438;2022-08-19T06:23:31;17.40;99.90
55004;DHT22;40900;52.710;6.438;2022-08-19T06:25:56;17.40;99.90
55004;DHT22;40900;52.710;6.438;2022-08-19T06:28:22;17.40;99.90
55004;DHT22;40900;52.710;6.438;2022-08-19T06:30:49;17.50;99.90
55004;DHT22;40900;52.710;6.438;2022-08-19T06:33:16;17.60;99.90
55004;DHT22;40900;52.710;6.438;2022-08-19T06:35:42;17.70;99.90
55004;DHT22;40900;52.710;6.438;2022-08-19T06:38:08;17.80;99.90
55004;DHT22;40900;52.710;6.438;2022-08-19T06:40:35;17.90;99.90
55004;DHT22;40900;52.710;6.438;2022-08-19T06:43:03;18.00;99.90
55004;DHT22;40900;52.710;6.438;2022-08-19T06:45:28;18.10;99.90
55004;DHT22;40900;52.710;6.438;2022-08-19T06:47:56;18.20;99.90
55004;DHT22;40900;52.710;6.438;2022-08-19T06:50:23;18.40;99.90
55004;DHT22;40900;52.710;6.438;2022-08-19T06:52:48;18.40;99.90
55004;DHT22;40900;52.710;6.438;2022-08-19T06:55:15;18.50;99.90
55004;DHT22;40900;52.710;6.438;2022-08-19T06:57:42;18.50;99.90
55004;DHT22;40900;52.710;6.438;2022-08-19T07:00:08;18.70;99.90
55004;DHT22;40900;52.710;6.438;2022-08-19T07:02:42;18.70;99.90
55004;DHT22;40900;52.710;6.438;2022-08-19T07:05:08;18.70;99.90
55004;DHT22;40900;52.710;6.438;2022-08-19T07:07:34;18.80;99.90
55004;DHT22;40900;52.710;6.438;2022-08-19T07:10:00;18.90;99.90
55004;DHT22;40900;52.710;6.438;2022-08-19T07:12:29;19.00;99.90
55004;DHT22;40900;52.710;6.438;2022-08-19T07:14:58;19.10;99.90
55004;DHT22;40900;52.710;6.438;2022-08-19T07:17:25;19.10;99.90
55004;DHT22;40900;52.710;6.438;2022-08-19T07:19:51;19.30;99.90
55004;DHT22;40900;52.710;6.438;2022-08-19T07:22:16;19.40;99.90
55004;DHT22;40900;52.710;6.438;2022-08-19T07:24:43;19.50;99.90
55004;DHT22;40900;52.710;6.438;2022-08-19T07:27:09;19.60;99.90
55004;DHT22;40900;52.710;6.438;2022-08-19T07:29:36;19.70;99.90
55004;DHT22;40900;52.710;6.438;2022-08-19T07:32:03;19.80;99.90
55004;DHT22;40900;52.710;6.438;2022-08-19T07:34:30;19.90;99.90
55004;DHT22;40900;52.710;6.438;2022-08-19T07:36:56;20.00;99.90
55004;DHT22;40900;52.710;6.438;2022-08-19T07:39:27;20.20;99.90
55004;DHT22;40900;52.710;6.438;2022-08-19T07:41:54;20.30;99.90
55004;DHT22;40900;52.710;6.438;2022-08-19T07:44:20;20.50;99.90
55004;DHT22;40900;52.710;6.438;2022-08-19T07:46:50;20.60;99.90
55004;DHT22;40900;52.710;6.438;2022-08-19T07:49:17;20.80;99.90
55004;DHT22;40900;52.710;6.438;2022-08-19T07:51:50;20.80;99.90
55004;DHT22;40900;52.710;6.438;2022-08-19T07:54:16;21.00;99.90
55004;DHT22;40900;52.710;6.438;2022-08-19T07:56:42;21.10;99.90
55004;DHT22;40900;52.710;6.438;2022-08-19T07:59:08;21.40;99.90
55004;DHT22;40900;52.710;6.438;2022-08-19T08:01:35;21.70;99.90
55004;DHT22;40900;52.710;6.438;2022-08-19T08:04:01;22.20;99.90
55004;DHT22;40900;52.710;6.438;2022-08-19T08:06:46;22.80;99.90
55004;DHT22;40900;52.710;6.438;2022-08-19T08:09:37;23.60;99.90
55004;DHT22;40900;52.710;6.438;2022-08-19T08:12:06;24.50;99.90
55004;DHT22;40900;52.710;6.438;2022-08-19T08:14:39;24.90;99.90
55004;DHT22;40900;52.710;6.438;2022-08-19T08:17:05;25.20;99.90
55004;DHT22;40900;52.710;6.438;2022-08-19T08:19:31;25.70;99.90
55004;DHT22;40900;52.710;6.438;2022-08-19T08:21:59;26.00;99.90
55004;DHT22;40900;52.710;6.438;2022-08-19T08:24:28;26.40;99.90
55004;DHT22;40900;52.710;6.438;2022-08-19T08:26:54;26.70;99.90
55004;DHT22;40900;52.710;6.438;2022-08-19T08:29:19;27.00;99.90
55004;DHT22;40900;52.710;6.438;2022-08-19T08:31:46;26.50;99.90
55004;DHT22;40900;52.710;6.438;2022-08-19T08:34:13;26.90;99.90
55004;DHT22;40900;52.710;6.438;2022-08-19T08:36:42;27.10;99.90
55004;DHT22;40900;52.710;6.438;2022-08-19T08:39:18;27.20;99.90
55004;DHT22;40900;52.710;6.438;2022-08-19T08:44:29;28.40;99.90
55004;DHT22;40900;52.710;6.438;2022-08-19T08:47:01;28.60;99.90
55004;DHT22;40900;52.710;6.438;2022-08-19T08:49:40;27.70;99.90
55004;DHT22;40900;52.710;6.438;2022-08-19T08:54:48;28.20;99.90
55004;DHT22;40900;52.710;6.438;2022-08-19T08:57:22;28.30;99.90
55004;DHT22;40900;52.710;6.438;2022-08-19T08:59:51;28.40;99.90
55004;DHT22;40900;52.710;6.438;2022-08-19T09:02:19;29.00;99.90
55004;DHT22;40900;52.710;6.438;2022-08-19T09:04:45;29.00;98.90
55004;DHT22;40900;52.710;6.438;2022-08-19T09:09:54;29.20;98.70
55004;DHT22;40900;52.710;6.438;2022-08-19T09:12:53;30.00;98.80
55004;DHT22;40900;52.710;6.438;2022-08-19T09:15:29;30.50;97.60
55004;DHT22;40900;52.710;6.438;2022-08-19T09:18:00;30.40;96.90
55004;DHT22;40900;52.710;6.438;2022-08-19T09:20:27;30.80;97.00
55004;DHT22;40900;52.710;6.438;2022-08-19T09:22:53;30.20;96.80
55004;DHT22;40900;52.710;6.438;2022-08-19T09:25:21;29.30;97.00
55004;DHT22;40900;52.710;6.438;2022-08-19T09:27:48;30.10;97.40
55004;DHT22;40900;52.710;6.438;2022-08-19T09:30:23;30.70;96.70
55004;DHT22;40900;52.710;6.438;2022-08-19T09:32:50;30.80;95.80
55004;DHT22;40900;52.710;6.438;2022-08-19T09:35:18;30.50;95.00
55004;DHT22;40900;52.710;6.438;2022-08-19T09:37:45;30.00;95.10
55004;DHT22;40900;52.710;6.438;2022-08-19T09:40:12;30.20;96.00
55004;DHT22;40900;52.710;6.438;2022-08-19T09:42:38;30.70;96.20
55004;DHT22;40900;52.710;6.438;2022-08-19T09:45:04;31.00;95.60
55004;DHT22;40900;52.710;6.438;2022-08-19T09:47:31;30.70;95.10
55004;DHT22;40900;52.710;6.438;2022-08-19T09:49:59;30.50;96.00
55004;DHT22;40900;52.710;6.438;2022-08-19T09:52:24;31.10;95.50
55004;DHT22;40900;52.710;6.438;2022-08-19T09:54:52;31.30;94.50
55004;DHT22;40900;52.710;6.438;2022-08-19T09:57:18;31.10;93.50
55004;DHT22;40900;52.710;6.438;2022-08-19T09:59:44;31.70;94.30
55004;DHT22;40900;52.710;6.438;2022-08-19T10:02:10;31.40;94.40
55004;DHT22;40900;52.710;6.438;2022-08-19T10:04:36;31.40;93.80
55004;DHT22;40900;52.710;6.438;2022-08-19T10:07:20;31.10;94.20
55004;DHT22;40900;52.710;6.438;2022-08-19T10:09:46;30.20;94.20
55004;DHT22;40900;52.710;6.438;2022-08-19T10:12:12;30.50;94.50
55004;DHT22;40900;52.710;6.438;2022-08-19T10:14:41;30.70;94.90
55004;DHT22;40900;52.710;6.438;2022-08-19T10:17:11;30.90;94.50
55004;DHT22;40900;52.710;6.438;2022-08-19T10:19:38;30.50;94.90
55004;DHT22;40900;52.710;6.438;2022-08-19T10:22:06;31.40;94.80
55004;DHT22;40900;52.710;6.438;2022-08-19T10:24:33;31.20;93.50
55004;DHT22;40900;52.710;6.438;2022-08-19T10:27:02;31.50;94.90
55004;DHT22;40900;52.710;6.438;2022-08-19T10:29:30;32.30;93.80
55004;DHT22;40900;52.710;6.438;2022-08-19T10:31:59;32.70;92.70
55004;DHT22;40900;52.710;6.438;2022-08-19T10:34:26;31.70;93.10
55004;DHT22;40900;52.710;6.438;2022-08-19T10:36:52;32.00;93.30
55004;DHT22;40900;52.710;6.438;2022-08-19T10:39:17;32.50;93.30
55004;DHT22;40900;52.710;6.438;2022-08-19T10:41:43;32.70;92.70
55004;DHT22;40900;52.710;6.438;2022-08-19T10:44:12;32.20;92.50
55004;DHT22;40900;52.710;6.438;2022-08-19T10:46:41;32.60;93.10
55004;DHT22;40900;52.710;6.438;2022-08-19T10:49:08;32.40;92.30
55004;DHT22;40900;52.710;6.438;2022-08-19T10:51:35;31.80;92.60
55004;DHT22;40900;52.710;6.438;2022-08-19T10:54:20;31.80;93.30
55004;DHT22;40900;52.710;6.438;2022-08-19T10:56:46;32.00;93.80
55004;DHT22;40900;52.710;6.438;2022-08-19T10:59:25;31.90;94.00
55004;DHT22;40900;52.710;6.438;2022-08-19T11:01:54;31.40;94.00
55004;DHT22;40900;52.710;6.438;2022-08-19T11:04:20;31.30;94.00
55004;DHT22;40900;52.710;6.438;2022-08-19T11:06:48;31.20;94.50
55004;DHT22;40900;52.710;6.438;2022-08-19T11:09:18;31.70;94.00
55004;DHT22;40900;52.710;6.438;2022-08-19T11:11:45;31.20;94.40
55004;DHT22;40900;52.710;6.438;2022-08-19T11:14:13;31.10;93.90
55004;DHT22;40900;52.710;6.438;2022-08-19T11:16:40;31.10;94.20
55004;DHT22;40900;52.710;6.438;2022-08-19T11:19:07;31.20;94.10
55004;DHT22;40900;52.710;6.438;2022-08-19T11:21:37;31.70;93.90
55004;DHT22;40900;52.710;6.438;2022-08-19T11:24:09;31.30;92.90
55004;DHT22;40900;52.710;6.438;2022-08-19T11:26:37;31.00;93.70
55004;DHT22;40900;52.710;6.438;2022-08-19T11:29:06;30.40;93.50
55004;DHT22;40900;52.710;6.438;2022-08-19T11:31:37;29.70;93.80
55004;DHT22;40900;52.710;6.438;2022-08-19T11:34:08;29.60;94.50
55004;DHT22;40900;52.710;6.438;2022-08-19T11:36:37;29.30;94.70
55004;DHT22;40900;52.710;6.438;2022-08-19T11:39:05;29.50;95.60
55004;DHT22;40900;52.710;6.438;2022-08-19T11:41:32;29.80;94.90
55004;DHT22;40900;52.710;6.438;2022-08-19T11:43:57;30.10;94.60
55004;DHT22;40900;52.710;6.438;2022-08-19T11:46:25;30.00;93.70
55004;DHT22;40900;52.710;6.438;2022-08-19T11:48:51;29.90;93.80
55004;DHT22;40900;52.710;6.438;2022-08-19T11:51:21;29.90;94.00
55004;DHT22;40900;52.710;6.438;2022-08-19T11:53:47;30.00;93.70
55004;DHT22;40900;52.710;6.438;2022-08-19T11:56:14;30.40;93.40
55004;DHT22;40900;52.710;6.438;2022-08-19T11:58:40;30.50;93.00
55004;DHT22;40900;52.710;6.438;2022-08-19T12:01:09;30.50;92.40
55004;DHT22;40900;52.710;6.438;2022-08-19T12:03:37;30.10;92.80
55004;DHT22;40900;52.710;6.438;2022-08-19T12:06:12;30.00;91.20
55004;DHT22;40900;52.710;6.438;2022-08-19T12:08:39;30.00;91.90
55004;DHT22;40900;52.710;6.438;2022-08-19T12:11:06;29.70;92.50
55004;DHT22;40900;52.710;6.438;2022-08-19T12:13:34;29.80;92.60
55004;DHT22;40900;52.710;6.438;2022-08-19T12:16:01;29.60;93.60
55004;DHT22;40900;52.710;6.438;2022-08-19T12:18:32;29.40;94.20
55004;DHT22;40900;52.710;6.438;2022-08-19T12:20:57;29.70;94.00
55004;DHT22;40900;52.710;6.438;2022-08-19T12:23:25;29.60;94.20
55004;DHT22;40900;52.710;6.438;2022-08-19T12:25:51;29.60;93.80
55004;DHT22;40900;52.710;6.438;2022-08-19T12:28:22;29.50;93.80
55004;DHT22;40900;52.710;6.438;2022-08-19T12:30:49;29.30;92.90
55004;DHT22;40900;52.710;6.438;2022-08-19T12:33:18;29.30;93.40
55004;DHT22;40900;52.710;6.438;2022-08-19T12:35:45;29.20;93.30
55004;DHT22;40900;52.710;6.438;2022-08-19T12:38:15;29.40;94.10
55004;DHT22;40900;52.710;6.438;2022-08-19T12:40:41;29.70;94.20
55004;DHT22;40900;52.710;6.438;2022-08-19T12:43:07;29.60;93.70
55004;DHT22;40900;52.710;6.438;2022-08-19T12:45:34;29.80;93.60
55004;DHT22;40900;52.710;6.438;2022-08-19T12:47:59;29.60;93.90
55004;DHT22;40900;52.710;6.438;2022-08-19T12:50:25;29.80;94.20
55004;DHT22;40900;52.710;6.438;2022-08-19T12:52:51;29.80;93.50
55004;DHT22;40900;52.710;6.438;2022-08-19T12:55:17;29.40;93.20
55004;DHT22;40900;52.710;6.438;2022-08-19T12:57:44;29.40;93.70
55004;DHT22;40900;52.710;6.438;2022-08-19T13:00:13;28.90;94.30
55004;DHT22;40900;52.710;6.438;2022-08-19T13:02:41;28.30;95.50
55004;DHT22;40900;52.710;6.438;2022-08-19T13:05:09;28.30;96.00
55004;DHT22;40900;52.710;6.438;2022-08-19T13:07:37;28.30;96.40
55004;DHT22;40900;52.710;6.438;2022-08-19T13:10:05;28.70;96.10
55004;DHT22;40900;52.710;6.438;2022-08-19T13:12:31;29.10;95.80
55004;DHT22;40900;52.710;6.438;2022-08-19T13:14:57;29.10;94.80
55004;DHT22;40900;52.710;6.438;2022-08-19T13:17:22;28.90;94.50
55004;DHT22;40900;52.710;6.438;2022-08-19T13:19:48;28.70;94.50
55004;DHT22;40900;52.710;6.438;2022-08-19T13:22:14;28.70;94.40
55004;DHT22;40900;52.710;6.438;2022-08-19T13:24:40;28.30;94.70
55004;DHT22;40900;52.710;6.438;2022-08-19T13:27:05;28.40;95.00
55004;DHT22;40900;52.710;6.438;2022-08-19T13:29:32;28.50;95.40
55004;DHT22;40900;52.710;6.438;2022-08-19T13:32:16;28.20;94.90
55004;DHT22;40900;52.710;6.438;2022-08-19T13:35:02;28.30;95.00
55004;DHT22;40900;52.710;6.438;2022-08-19T13:37:27;28.50;95.20
55004;DHT22;40900;52.710;6.438;2022-08-19T13:40:24;28.70;94.80
55004;DHT22;40900;52.710;6.438;2022-08-19T13:42:54;28.60;94.10
55004;DHT22;40900;52.710;6.438;2022-08-19T13:45:22;28.50;94.50
55004;DHT22;40900;52.710;6.438;2022-08-19T13:47:51;28.60;93.50
55004;DHT22;40900;52.710;6.438;2022-08-19T13:50:21;28.60;93.00
55004;DHT22;40900;52.710;6.438;2022-08-19T13:52:47;28.40;93.10
55004;DHT22;40900;52.710;6.438;2022-08-19T13:55:14;28.60;93.40
55004;DHT22;40900;52.710;6.438;2022-08-19T13:57:41;28.60;93.70
55004;DHT22;40900;52.710;6.438;2022-08-19T14:00:09;28.80;93.80
55004;DHT22;40900;52.710;6.438;2022-08-19T14:02:39;29.10;93.90
55004;DHT22;40900;52.710;6.438;2022-08-19T14:05:10;29.40;93.80
55004;DHT22;40900;52.710;6.438;2022-08-19T14:07:36;29.50;94.30
55004;DHT22;40900;52.710;6.438;2022-08-19T14:10:04;29.60;94.50
55004;DHT22;40900;52.710;6.438;2022-08-19T14:12:30;29.60;94.10
55004;DHT22;40900;52.710;6.438;2022-08-19T14:14:57;29.50;94.60
55004;DHT22;40900;52.710;6.438;2022-08-19T14:17:23;29.30;95.00
55004;DHT22;40900;52.710;6.438;2022-08-19T14:19:56;29.40;94.90
55004;DHT22;40900;52.710;6.438;2022-08-19T14:22:22;29.10;95.40
55004;DHT22;40900;52.710;6.438;2022-08-19T14:24:47;28.90;95.80
55004;DHT22;40900;52.710;6.438;2022-08-19T14:27:13;28.60;96.30
55004;DHT22;40900;52.710;6.438;2022-08-19T14:29:40;28.80;96.40
55004;DHT22;40900;52.710;6.438;2022-08-19T14:32:05;28.80;96.30
55004;DHT22;40900;52.710;6.438;2022-08-19T14:34:31;28.70;96.20
55004;DHT22;40900;52.710;6.438;2022-08-19T14:36:59;28.60;95.60
55004;DHT22;40900;52.710;6.438;2022-08-19T14:39:25;28.70;95.80
55004;DHT22;40900;52.710;6.438;2022-08-19T14:41:52;28.80;96.20
55004;DHT22;40900;52.710;6.438;2022-08-19T14:44:18;28.90;96.60
55004;DHT22;40900;52.710;6.438;2022-08-19T14:46:44;29.00;97.00
55004;DHT22;40900;52.710;6.438;2022-08-19T14:49:10;28.80;97.10
55004;DHT22;40900;52.710;6.438;2022-08-19T14:51:36;28.70;97.10
55004;DHT22;40900;52.710;6.438;2022-08-19T14:54:02;28.60;96.70
55004;DHT22;40900;52.710;6.438;2022-08-19T14:56:29;28.40;96.90
55004;DHT22;40900;52.710;6.438;2022-08-19T14:58:55;28.40;97.00
55004;DHT22;40900;52.710;6.438;2022-08-19T15:01:25;28.30;97.50
55004;DHT22;40900;52.710;6.438;2022-08-19T15:03:52;28.20;97.80
55004;DHT22;40900;52.710;6.438;2022-08-19T15:06:20;28.10;98.20
55004;DHT22;40900;52.710;6.438;2022-08-19T15:08:46;28.00;98.60
55004;DHT22;40900;52.710;6.438;2022-08-19T15:11:14;27.80;99.00
55004;DHT22;40900;52.710;6.438;2022-08-19T15:13:42;27.60;99.40
55004;DHT22;40900;52.710;6.438;2022-08-19T15:16:09;27.10;99.90
55004;DHT22;40900;52.710;6.438;2022-08-19T15:18:35;27.00;99.90
55004;DHT22;40900;52.710;6.438;2022-08-19T15:21:02;27.00;99.90
55004;DHT22;40900;52.710;6.438;2022-08-19T15:23:28;26.80;99.90
55004;DHT22;40900;52.710;6.438;2022-08-19T15:25:54;26.60;99.90
55004;DHT22;40900;52.710;6.438;2022-08-19T15:28:21;26.30;99.90
55004;DHT22;40900;52.710;6.438;2022-08-19T15:30:47;26.20;99.90
55004;DHT22;40900;52.710;6.438;2022-08-19T15:33:13;26.10;99.90
55004;DHT22;40900;52.710;6.438;2022-08-19T15:35:46;26.30;99.90
55004;DHT22;40900;52.710;6.438;2022-08-19T15:38:13;26.30;99.90
55004;DHT22;40900;52.710;6.438;2022-08-19T15:40:40;26.40;99.90
55004;DHT22;40900;52.710;6.438;2022-08-19T15:43:06;26.40;99.90